Time;durP1;ratioP1;P1;durP2;ratioP2;P2;SDS_P1;SDS_P2;PMS_P1;PMS_P2;Temp;Humidity;BMP_temperature;BMP_pressure;BME280_temperature;BME280_humidity;BME280_pressure;Samples;Min_cycle;Max_cycle;Signal;HPM_P1;HPM_P2
2023/06/26 00:00:43;;;;;;;;;;;;;;;25.62;57.44;99165.28;5094067;28;20022;-37
2023/06/26 00:03:08;;;;;;;;;;;;;;;25.38;58.20;99159.44;5093945;28;19920;-36
2023/06/26 00:05:34;;;;;;;;;;;;;;;25.65;57.96;99159.22;5093800;28;20368;-36
2023/06/26 00:08:00;;;;;;;;;;;;;;;25.35;58.11;99160.91;5093770;28;19919;-36
2023/06/26 00:10:26;;;;;;;;;;;;;;;25.35;58.67;99152.72;5093935;28;19912;-34
2023/06/26 00:12:51;;;;;;;;;;;;;;;25.47;57.92;99154.84;5093860;28;19995;-36
2023/06/26 00:15:16;;;;;;;;;;;;;;;25.31;58.48;99147.09;5093970;28;19946;-36
2023/06/26 00:17:42;;;;;;;;;;;;;;;25.34;58.38;99160.09;5093825;28;20364;-36
2023/06/26 00:20:08;;;;;;;;;;;;;;;25.19;58.95;99163.22;5093740;28;19971;-36
2023/06/26 00:22:33;;;;;;;;;;;;;;;25.06;59.29;99161.41;5093358;28;19912;-36
2023/06/26 00:24:59;;;;;;;;;;;;;;;24.86;59.86;99160.03;5093482;28;19919;-37
2023/06/26 00:27:24;;;;;;;;;;;;;;;25.05;59.12;99165.25;5093675;28;19981;-36
2023/06/26 00:29:49;;;;;;;;;;;;;;;24.93;59.81;99166.63;5093697;28;19913;-37
2023/06/26 00:32:14;;;;;;;;;;;;;;;24.78;60.10;99164.31;5093590;28;20280;-36
2023/06/26 00:34:40;;;;;;;;;;;;;;;24.47;61.36;99165.06;5093098;28;19930;-37
2023/06/26 00:37:05;;;;;;;;;;;;;;;24.85;60.26;99169.31;5093447;28;20001;-36
2023/06/26 00:39:30;;;;;;;;;;;;;;;24.95;60.16;99164.41;5093367;28;19956;-36
2023/06/26 00:41:56;;;;;;;;;;;;;;;25.23;59.81;99166.16;5093272;28;19916;-36
2023/06/26 00:44:21;;;;;;;;;;;;;;;25.55;58.19;99163.03;5093251;28;19951;-36
2023/06/26 00:46:46;;;;;;;;;;;;;;;25.63;58.08;99161.44;5093167;28;19939;-35
2023/06/26 00:49:12;;;;;;;;;;;;;;;25.36;59.21;99167.97;5093161;28;19923;-36
2023/06/26 00:51:37;;;;;;;;;;;;;;;25.44;59.02;99163.66;5093245;28;19912;-36
2023/06/26 00:54:03;;;;;;;;;;;;;;;25.29;59.35;99162.97;5092906;28;19912;-37
2023/06/26 00:56:31;;;;;;;;;;;;;;;25.55;58.59;99165.78;5092855;28;19959;-36
2023/06/26 00:58:56;;;;;;;;;;;;;;;25.58;58.63;99158.88;5092666;28;19920;-36
2023/06/26 01:01:25;;;;;;;;;;;;;;;25.22;59.32;99161.78;5092921;28;19931;-36
2023/06/26 01:03:51;;;;;;;;;;;;;;;24.80;61.07;99155.84;5092591;28;19938;-36
2023/06/26 01:06:17;;;;;;;;;;;;;;;24.81;61.28;99157.44;5092735;28;19945;-36
2023/06/26 01:08:43;;;;;;;;;;;;;;;24.52;62.26;99151.38;5092749;28;20010;-36
2023/06/26 01:11:08;;;;;;;;;;;;;;;24.85;61.13;99148.34;5091951;28;20000;-36
2023/06/26 01:13:35;;;;;;;;;;;;;;;24.81;61.44;99150.09;5092695;28;19920;-36
2023/06/26 01:16:00;;;;;;;;;;;;;;;24.27;63.14;99136.44;5092361;28;19920;-36
2023/06/26 01:18:26;;;;;;;;;;;;;;;24.86;61.38;99149.94;5092399;28;19916;-36
2023/06/26 01:20:51;;;;;;;;;;;;;;;24.93;61.61;99139.41;5091980;28;20307;-36
2023/06/26 01:23:29;;;;;;;;;;;;;;;24.75;62.09;99145.88;5091879;28;20360;-36
2023/06/26 01:25:55;;;;;;;;;;;;;;;25.00;60.65;99144.41;5092220;28;19943;-36
2023/06/26 01:28:21;;;;;;;;;;;;;;;24.60;62.17;99147.09;5092197;28;19912;-36
2023/06/26 01:30:47;;;;;;;;;;;;;;;24.28;63.46;99134.53;5092165;28;19942;-36
2023/06/26 01:33:13;;;;;;;;;;;;;;;24.87;61.82;99139.88;5091955;28;20411;-37
2023/06/26 01:35:39;;;;;;;;;;;;;;;24.81;62.12;99133.78;5092129;28;20083;-36
2023/06/26 01:38:15;;;;;;;;;;;;;;;24.76;62.33;99137.41;5090070;28;19955;-37
2023/06/26 01:40:41;;;;;;;;;;;;;;;24.77;62.15;99127.34;5089352;28;19916;-36
2023/06/26 01:43:09;;;;;;;;;;;;;;;24.72;62.06;99124.75;5091918;28;19965;-36
2023/06/26 01:45:34;;;;;;;;;;;;;;;24.91;61.52;99129.97;5092268;28;19969;-36
2023/06/26 01:48:01;;;;;;;;;;;;;;;24.84;61.67;99129.63;5092139;28;19920;-36
2023/06/26 01:50:28;;;;;;;;;;;;;;;24.96;61.42;99130.63;5091895;28;20005;-36
2023/06/26 01:53:05;;;;;;;;;;;;;;;24.41;63.51;99122.81;5092104;28;19908;-35
2023/06/26 01:55:42;;;;;;;;;;;;;;;23.93;64.70;99128.81;5091773;28;19938;-36
2023/06/26 01:58:08;;;;;;;;;;;;;;;24.37;63.65;99127.25;5091564;28;19962;-36
2023/06/26 02:00:34;;;;;;;;;;;;;;;24.30;63.53;99129.59;5091692;28;20010;-36
2023/06/26 02:02:59;;;;;;;;;;;;;;;24.54;63.03;99132.00;5091694;28;19962;-36
2023/06/26 02:05:25;;;;;;;;;;;;;;;24.52;62.92;99132.34;5091492;28;19912;-36
2023/06/26 02:07:51;;;;;;;;;;;;;;;24.64;62.54;99130.97;5091607;28;19912;-36
2023/06/26 02:10:17;;;;;;;;;;;;;;;24.65;62.71;99133.34;5091544;28;19920;-36
2023/06/26 02:12:42;;;;;;;;;;;;;;;24.87;61.59;99127.06;5091328;28;19995;-36
2023/06/26 02:15:08;;;;;;;;;;;;;;;24.78;61.80;99131.66;5091520;28;19919;-35
2023/06/26 02:17:33;;;;;;;;;;;;;;;24.71;62.46;99136.75;5091286;28;20003;-36
2023/06/26 02:19:58;;;;;;;;;;;;;;;24.80;62.03;99140.31;5091544;28;19923;-36
2023/06/26 02:22:24;;;;;;;;;;;;;;;24.76;62.38;99136.63;5090480;28;20252;-36
2023/06/26 02:24:49;;;;;;;;;;;;;;;24.56;63.06;99130.59;5091468;28;19912;-36
2023/06/26 02:27:14;;;;;;;;;;;;;;;24.54;63.05;99134.72;5091470;28;20166;-35
2023/06/26 02:29:40;;;;;;;;;;;;;;;24.95;61.60;99131.75;5091437;28;20428;-35
2023/06/26 02:32:06;;;;;;;;;;;;;;;24.74;62.38;99131.47;5095890;28;19939;-36
2023/06/26 02:34:31;;;;;;;;;;;;;;;24.77;62.14;99128.16;5099084;28;20369;-36
2023/06/26 02:36:56;;;;;;;;;;;;;;;24.77;62.44;99127.34;5096177;28;20006;-36
2023/06/26 02:39:22;;;;;;;;;;;;;;;24.86;61.71;99128.16;5102558;28;19998;-36
2023/06/26 02:41:47;;;;;;;;;;;;;;;24.54;63.28;99126.56;5090975;28;19951;-36
2023/06/26 02:44:14;;;;;;;;;;;;;;;24.71;62.40;99132.13;5090946;28;19959;-36
2023/06/26 02:46:39;;;;;;;;;;;;;;;24.69;62.83;99134.31;5091109;28;19936;-36
2023/06/26 02:49:04;;;;;;;;;;;;;;;24.88;61.84;99133.31;5091001;28;19944;-36
2023/06/26 02:51:31;;;;;;;;;;;;;;;24.82;62.16;99121.75;5091141;28;19935;-36
2023/06/26 02:53:56;;;;;;;;;;;;;;;24.98;61.56;99128.41;5088806;28;19920;-42
2023/06/26 02:56:22;;;;;;;;;;;;;;;25.05;61.51;99135.31;5090018;28;19916;-42
2023/06/26 02:58:47;;;;;;;;;;;;;;;24.66;62.75;99126.00;5089545;28;19926;-42
2023/06/26 03:01:12;;;;;;;;;;;;;;;24.62;62.90;99127.72;5090256;28;20365;-43
2023/06/26 03:03:41;;;;;;;;;;;;;;;24.52;63.42;99134.22;5090535;28;19919;-42
2023/06/26 03:06:07;;;;;;;;;;;;;;;24.67;62.39;99133.84;5088979;28;19916;-42
2023/06/26 03:08:32;;;;;;;;;;;;;;;24.74;62.01;99136.91;5090700;28;20338;-42
2023/06/26 03:10:58;;;;;;;;;;;;;;;24.84;61.75;99148.66;5090763;28;19994;-42
2023/06/26 03:13:23;;;;;;;;;;;;;;;24.84;61.93;99144.00;5090610;28;19916;-42
2023/06/26 03:15:48;;;;;;;;;;;;;;;24.84;61.81;99141.28;5087213;28;20343;-42
2023/06/26 03:18:13;;;;;;;;;;;;;;;24.83;61.50;99145.13;5086979;28;19984;-43
2023/06/26 03:20:39;;;;;;;;;;;;;;;24.81;61.27;99127.50;5081587;28;19924;-42
2023/06/26 03:23:04;;;;;;;;;;;;;;;24.86;61.30;99144.50;5087050;28;19951;-42
2023/06/26 03:25:29;;;;;;;;;;;;;;;24.97;61.15;99148.56;5090633;28;19985;-42
2023/06/26 03:27:55;;;;;;;;;;;;;;;24.91;61.09;99146.28;5089774;28;20011;-45
2023/06/26 03:30:20;;;;;;;;;;;;;;;25.13;60.78;99154.41;5089206;28;19912;-44
2023/06/26 03:32:45;;;;;;;;;;;;;;;25.03;60.80;99156.59;5089094;28;20070;-41
2023/06/26 03:35:11;;;;;;;;;;;;;;;25.02;61.13;99157.69;5092602;28;19920;-42
2023/06/26 03:37:36;;;;;;;;;;;;;;;25.08;61.05;99161.91;5093513;28;19924;-42
2023/06/26 03:40:03;;;;;;;;;;;;;;;25.04;61.22;99156.28;5092877;28;20576;-42
2023/06/26 03:42:28;;;;;;;;;;;;;;;25.14;60.77;99155.19;5093163;28;19912;-43
2023/06/26 03:44:53;;;;;;;;;;;;;;;25.16;60.73;99158.41;5092982;28;19973;-42
2023/06/26 03:47:19;;;;;;;;;;;;;;;25.62;58.78;99151.66;5092958;28;19947;-42
2023/06/26 03:49:44;;;;;;;;;;;;;;;25.64;58.37;99159.53;5092975;28;19947;-42
2023/06/26 03:52:09;;;;;;;;;;;;;;;25.44;59.64;99147.31;5093237;28;20264;-42
2023/06/26 03:54:34;;;;;;;;;;;;;;;25.65;57.12;99145.59;5092833;28;19919;-40
2023/06/26 03:57:00;;;;;;;;;;;;;;;25.59;58.65;99155.03;5093000;28;19971;-41
2023/06/26 03:59:25;;;;;;;;;;;;;;;25.56;58.38;99155.66;5093936;28;19917;-42
2023/06/26 04:01:50;;;;;;;;;;;;;;;26.38;56.44;99153.16;5093923;28;20017;-41
2023/06/26 04:04:16;;;;;;;;;;;;;;;26.37;56.36;99146.13;5094655;28;19913;-43
2023/06/26 04:06:41;;;;;;;;;;;;;;;26.25;56.71;99137.78;5094268;28;19919;-43
2023/06/26 04:09:06;;;;;;;;;;;;;;;26.43;54.90;99142.09;5094425;28;20386;-42
2023/06/26 04:11:32;;;;;;;;;;;;;;;26.61;54.87;99137.41;5094229;28;19974;-43
2023/06/26 04:13:57;;;;;;;;;;;;;;;26.25;56.49;99144.00;5093905;28;19916;-43
2023/06/26 04:16:25;;;;;;;;;;;;;;;26.45;55.87;99153.47;5093989;28;19912;-42
2023/06/26 04:18:51;;;;;;;;;;;;;;;26.66;55.69;99150.09;5093816;28;19923;-42
2023/06/26 04:21:17;;;;;;;;;;;;;;;27.57;53.17;99141.66;5093709;28;19918;-42
2023/06/26 04:23:42;;;;;;;;;;;;;;;27.54;52.96;99139.63;5094260;28;19916;-42
2023/06/26 04:26:08;;;;;;;;;;;;;;;27.49;52.96;99140.59;5094068;28;20034;-43
2023/06/26 04:28:34;;;;;;;;;;;;;;;28.15;51.53;99134.50;5093664;28;20053;-42
2023/06/26 04:31:05;;;;;;;;;;;;;;;27.86;51.83;99138.91;5094049;28;19931;-42
2023/06/26 04:33:30;;;;;;;;;;;;;;;28.26;51.09;99138.44;5093800;28;20027;-42
2023/06/26 04:35:56;;;;;;;;;;;;;;;28.58;50.64;99140.72;5093715;28;19943;-43
2023/06/26 04:38:22;;;;;;;;;;;;;;;28.36;50.42;99139.16;5093551;28;20387;-42
2023/06/26 04:40:47;;;;;;;;;;;;;;;28.34;50.51;99142.22;5093805;28;19916;-43
2023/06/26 04:43:12;;;;;;;;;;;;;;;27.90;51.39;99147.25;5093621;28;19919;-42
2023/06/26 04:45:38;;;;;;;;;;;;;;;27.81;51.83;99154.69;5092504;28;19919;-42
2023/06/26 04:48:03;;;;;;;;;;;;;;;28.14;50.97;99153.97;5093258;28;19919;-41
2023/06/26 04:50:30;;;;;;;;;;;;;;;28.32;50.18;99136.28;5093194;28;20541;-43
2023/06/26 04:52:55;;;;;;;;;;;;;;;28.22;50.76;99158.59;5092705;28;20007;-43
2023/06/26 04:55:24;;;;;;;;;;;;;;;28.25;51.04;99158.72;5092381;28;19951;-45
2023/06/26 04:57:49;;;;;;;;;;;;;;;29.05;49.08;99162.22;5091945;28;20011;-42
2023/06/26 05:00:15;;;;;;;;;;;;;;;28.70;49.35;99161.84;5090762;28;20015;-42
2023/06/26 05:02:40;;;;;;;;;;;;;;;28.56;49.96;99168.44;5090607;28;19912;-41
2023/06/26 05:05:05;;;;;;;;;;;;;;;29.16;48.39;99166.16;5091035;28;19912;-42
2023/06/26 05:07:31;;;;;;;;;;;;;;;28.91;48.28;99176.25;5091444;28;20384;-43
2023/06/26 05:09:56;;;;;;;;;;;;;;;29.18;48.35;99180.31;5091501;28;19969;-42
2023/06/26 05:12:21;;;;;;;;;;;;;;;28.62;48.91;99178.03;5091651;28;19988;-42
2023/06/26 05:14:47;;;;;;;;;;;;;;;28.43;49.77;99186.72;5092143;28;19947;-43
2023/06/26 05:17:13;;;;;;;;;;;;;;;28.34;49.18;99183.25;5092276;28;20376;-42
2023/06/26 05:19:39;;;;;;;;;;;;;;;28.91;48.28;99198.16;5092849;28;19916;-43
2023/06/26 05:22:07;;;;;;;;;;;;;;;28.43;48.57;99199.59;5092511;28;20361;-43
2023/06/26 05:24:33;;;;;;;;;;;;;;;28.59;48.42;99197.06;5092833;28;20368;-42
2023/06/26 05:26:59;;;;;;;;;;;;;;;28.67;48.39;99201.63;5092685;28;19919;-43
2023/06/26 05:29:24;;;;;;;;;;;;;;;28.76;48.58;99202.34;5092696;28;19969;-42
2023/06/26 05:31:51;;;;;;;;;;;;;;;29.77;46.61;99205.66;5092749;28;19999;-43
2023/06/26 05:34:19;;;;;;;;;;;;;;;29.55;46.41;99204.16;5092230;28;19916;-43
2023/06/26 05:36:45;;;;;;;;;;;;;;;30.23;44.37;99216.41;5092612;28;19916;-42
2023/06/26 05:39:11;;;;;;;;;;;;;;;30.80;43.34;99202.34;5092241;28;19920;-43
2023/06/26 05:41:36;;;;;;;;;;;;;;;31.23;42.23;99207.38;5092362;28;20331;-42
2023/06/26 05:44:02;;;;;;;;;;;;;;;31.07;42.08;99210.94;5092140;28;19946;-43
2023/06/26 05:46:27;;;;;;;;;;;;;;;32.13;40.92;99210.25;5092188;28;19957;-42
2023/06/26 05:48:52;;;;;;;;;;;;;;;32.43;40.13;99202.22;5092181;28;19994;-43
2023/06/26 05:51:18;;;;;;;;;;;;;;;31.89;40.50;99200.28;5092159;28;19912;-42
2023/06/26 05:53:43;;;;;;;;;;;;;;;31.66;40.77;99192.72;5092715;28;19946;-42
2023/06/26 05:56:09;;;;;;;;;;;;;;;31.68;40.90;99190.41;5091842;28;20390;-43
2023/06/26 05:58:34;;;;;;;;;;;;;;;31.19;41.30;99196.28;5091996;28;19940;-45
2023/06/26 06:00:59;;;;;;;;;;;;;;;30.16;43.35;99195.88;5091804;28;19935;-43
2023/06/26 06:03:25;;;;;;;;;;;;;;;30.87;41.94;99203.69;5091560;28;19923;-43
2023/06/26 06:05:50;;;;;;;;;;;;;;;30.88;42.82;99197.03;5091482;28;19916;-43
2023/06/26 06:08:15;;;;;;;;;;;;;;;31.60;40.76;99201.59;5091112;28;19942;-43
2023/06/26 06:10:41;;;;;;;;;;;;;;;31.81;40.41;99193.03;5091106;28;20303;-42
2023/06/26 06:13:06;;;;;;;;;;;;;;;31.65;40.57;99204.88;5091575;28;20288;-43
2023/06/26 06:15:31;;;;;;;;;;;;;;;31.34;41.28;99200.97;5090901;28;19919;-42
2023/06/26 06:17:57;;;;;;;;;;;;;;;30.50;42.87;99214.84;5091359;28;19923;-43
2023/06/26 06:20:22;;;;;;;;;;;;;;;30.26;43.00;99213.78;5091237;28;19916;-43
2023/06/26 06:22:48;;;;;;;;;;;;;;;29.53;43.99;99206.44;5091504;28;19912;-43
2023/06/26 06:25:13;;;;;;;;;;;;;;;29.34;45.56;99207.84;5090943;28;19912;-42
2023/06/26 06:27:39;;;;;;;;;;;;;;;28.75;46.20;99205.41;5091184;28;20026;-41
2023/06/26 06:30:04;;;;;;;;;;;;;;;29.09;46.03;99200.69;5091052;28;19912;-42
2023/06/26 06:32:29;;;;;;;;;;;;;;;29.11;46.27;99207.44;5091003;28;20065;-42
2023/06/26 06:34:55;;;;;;;;;;;;;;;28.96;46.09;99200.69;5091307;28;19947;-42
2023/06/26 06:37:20;;;;;;;;;;;;;;;29.07;46.69;99208.47;5091090;28;19912;-41
2023/06/26 06:39:45;;;;;;;;;;;;;;;28.62;47.01;99199.91;5090581;28;19981;-41
2023/06/26 06:42:11;;;;;;;;;;;;;;;28.57;46.75;99199.31;5091280;28;19912;-42
2023/06/26 06:44:36;;;;;;;;;;;;;;;28.27;46.85;99200.22;5091704;28;20374;-43
2023/06/26 06:47:01;;;;;;;;;;;;;;;27.67;48.04;99196.75;5091690;28;19919;-41
2023/06/26 06:49:26;;;;;;;;;;;;;;;27.91;48.15;99202.72;5091301;28;19927;-41
2023/06/26 06:51:52;;;;;;;;;;;;;;;28.38;47.23;99208.78;5091239;28;19942;-42
2023/06/26 06:54:17;;;;;;;;;;;;;;;28.63;47.10;99206.97;5091533;28;19920;-42
2023/06/26 06:56:42;;;;;;;;;;;;;;;28.45;46.68;99202.78;5091601;28;20396;-42
2023/06/26 06:59:08;;;;;;;;;;;;;;;28.33;46.95;99209.03;5091218;28;19916;-43
2023/06/26 07:01:33;;;;;;;;;;;;;;;27.93;47.53;99211.41;5090874;28;19912;-42
2023/06/26 07:03:59;;;;;;;;;;;;;;;28.17;47.29;99208.00;5091154;28;19915;-42
2023/06/26 07:06:24;;;;;;;;;;;;;;;27.96;47.33;99205.28;5090960;28;20237;-42
2023/06/26 07:08:49;;;;;;;;;;;;;;;28.75;45.53;99206.25;5092400;28;19940;-42
2023/06/26 07:11:15;;;;;;;;;;;;;;;29.22;45.19;99205.88;5095143;28;20356;-41
2023/06/26 07:13:40;;;;;;;;;;;;;;;29.06;45.12;99202.19;5095031;28;19973;-42
2023/06/26 07:16:05;;;;;;;;;;;;;;;29.02;44.49;99201.28;5095607;28;19912;-41
2023/06/26 07:18:31;;;;;;;;;;;;;;;29.28;43.97;99200.16;5095264;28;20370;-43
2023/06/26 07:20:56;;;;;;;;;;;;;;;29.46;44.44;99198.81;5094964;28;19973;-45
2023/06/26 07:23:21;;;;;;;;;;;;;;;29.52;44.47;99197.44;5095257;28;20376;-43
2023/06/26 07:25:46;;;;;;;;;;;;;;;29.75;44.26;99192.28;5095069;28;19927;-42
2023/06/26 07:28:12;;;;;;;;;;;;;;;29.76;43.64;99198.59;5094929;28;19938;-41
2023/06/26 07:30:37;;;;;;;;;;;;;;;29.58;43.27;99182.34;5094933;28;19959;-41
2023/06/26 07:33:02;;;;;;;;;;;;;;;29.87;43.09;99199.69;5094604;28;20315;-43
2023/06/26 07:35:28;;;;;;;;;;;;;;;30.26;42.82;99194.56;5094675;28;19912;-42
2023/06/26 07:37:53;;;;;;;;;;;;;;;30.67;41.58;99197.28;5094415;28;20244;-43
2023/06/26 07:40:19;;;;;;;;;;;;;;;30.73;40.98;99195.84;5094512;28;19916;-43
2023/06/26 07:42:44;;;;;;;;;;;;;;;31.13;40.41;99198.50;5094794;28;19963;-43
2023/06/26 07:45:11;;;;;;;;;;;;;;;31.02;39.52;99193.91;5094701;28;20309;-43
2023/06/26 07:47:38;;;;;;;;;;;;;;;31.06;40.29;99190.09;5094415;28;20366;-43
2023/06/26 07:50:03;;;;;;;;;;;;;;;31.90;39.41;99186.16;5094359;28;19912;-43
2023/06/26 07:52:30;;;;;;;;;;;;;;;32.44;38.42;99192.00;5094438;28;20267;-42
2023/06/26 07:54:55;;;;;;;;;;;;;;;33.07;36.68;99188.03;5094320;28;20384;-43
2023/06/26 07:57:20;;;;;;;;;;;;;;;33.18;36.75;99185.47;5094380;28;19947;-43
2023/06/26 07:59:46;;;;;;;;;;;;;;;33.22;36.42;99189.09;5092519;28;20332;-42
2023/06/26 08:02:11;;;;;;;;;;;;;;;32.90;36.50;99181.88;5094152;28;19995;-42
2023/06/26 08:04:36;;;;;;;;;;;;;;;32.53;36.27;99198.06;5094167;28;19935;-42
2023/06/26 08:07:03;;;;;;;;;;;;;;;32.56;37.18;99193.78;5093938;28;20405;-41
2023/06/26 08:09:29;;;;;;;;;;;;;;;32.60;36.66;99194.69;5093688;28;20378;-43
2023/06/26 08:11:55;;;;;;;;;;;;;;;31.70;38.53;99201.84;5093916;28;19995;-42
2023/06/26 08:14:20;;;;;;;;;;;;;;;31.81;38.82;99201.28;5093880;28;19912;-43
2023/06/26 08:16:46;;;;;;;;;;;;;;;31.97;37.19;99199.28;5093860;28;20015;-42
2023/06/26 08:19:15;;;;;;;;;;;;;;;31.87;37.86;99197.09;5093699;28;20272;-43
2023/06/26 08:21:41;;;;;;;;;;;;;;;31.86;37.58;99193.53;5092190;28;19912;-43
2023/06/26 08:24:06;;;;;;;;;;;;;;;31.71;37.10;99194.38;5092799;28;19912;-43
2023/06/26 08:26:31;;;;;;;;;;;;;;;31.63;39.52;99207.19;5093837;28;20014;-45
2023/06/26 08:28:57;;;;;;;;;;;;;;;30.95;46.87;99219.22;5092078;28;20014;-48
2023/06/26 08:31:22;;;;;;;;;;;;;;;30.34;49.88;99229.31;5093334;28;20077;-44
2023/06/26 08:33:47;;;;;;;;;;;;;;;29.83;50.86;99218.00;5093422;28;19968;-44
2023/06/26 08:36:13;;;;;;;;;;;;;;;28.95;52.50;99217.47;5093323;28;19924;-43
2023/06/26 08:38:40;;;;;;;;;;;;;;;29.02;53.86;99217.69;5093116;28;19990;-42
2023/06/26 08:41:05;;;;;;;;;;;;;;;29.99;51.33;99216.13;5093135;28;20324;-44
2023/06/26 08:43:31;;;;;;;;;;;;;;;30.62;49.46;99214.81;5093211;28;19912;-45
2023/06/26 08:45:57;;;;;;;;;;;;;;;30.89;48.92;99206.88;5092698;28;19912;-44
2023/06/26 08:48:22;;;;;;;;;;;;;;;30.98;49.08;99204.81;5093365;28;19912;-43
2023/06/26 08:50:48;;;;;;;;;;;;;;;30.92;49.58;99196.03;5093174;28;19989;-45
2023/06/26 08:53:36;;;;;;;;;;;;;;;30.77;49.85;99194.81;5093199;28;20280;-42
2023/06/26 08:56:02;;;;;;;;;;;;;;;30.88;49.32;99195.09;5092925;28;19969;-43
2023/06/26 08:58:27;;;;;;;;;;;;;;;30.85;49.86;99192.25;5092883;28;19924;-42
2023/06/26 09:00:52;;;;;;;;;;;;;;;30.80;49.20;99185.06;5093015;28;20073;-44
2023/06/26 09:03:17;;;;;;;;;;;;;;;30.83;50.09;99191.81;5092908;28;19916;-43
2023/06/26 09:05:43;;;;;;;;;;;;;;;31.06;48.70;99181.84;5092954;28;19951;-42
2023/06/26 09:08:08;;;;;;;;;;;;;;;31.16;48.01;99184.03;5092980;28;20286;-40
2023/06/26 09:10:33;;;;;;;;;;;;;;;31.25;48.56;99191.34;5092743;28;19916;-43
2023/06/26 09:13:01;;;;;;;;;;;;;;;31.46;52.02;99185.53;5092943;28;19912;-43
2023/06/26 09:15:28;;;;;;;;;;;;;;;31.74;46.56;99183.47;5093078;28;19912;-42
2023/06/26 09:17:56;;;;;;;;;;;;;;;31.86;49.22;99181.75;5093029;28;19912;-42
2023/06/26 09:20:21;;;;;;;;;;;;;;;32.36;44.44;99182.00;5092802;28;19959;-44
2023/06/26 09:22:48;;;;;;;;;;;;;;;32.61;44.78;99179.75;5092925;28;19966;-46
2023/06/26 09:25:13;;;;;;;;;;;;;;;33.22;39.06;99167.03;5092429;28;19961;-42
2023/06/26 09:27:39;;;;;;;;;;;;;;;33.63;37.43;99161.75;5092472;28;19916;-44
2023/06/26 09:30:06;;;;;;;;;;;;;;;34.01;39.86;99171.75;5092254;28;19912;-43
2023/06/26 09:32:33;;;;;;;;;;;;;;;33.78;39.95;99173.81;5092222;28;19924;-45
2023/06/26 09:35:00;;;;;;;;;;;;;;;32.25;45.36;99177.09;5092514;28;19916;-44
2023/06/26 09:37:25;;;;;;;;;;;;;;;30.59;49.11;99185.31;5092554;28;19916;-44
2023/06/26 09:39:51;;;;;;;;;;;;;;;29.84;52.20;99192.19;5092198;28;20276;-44
2023/06/26 09:42:16;;;;;;;;;;;;;;;30.28;50.40;99196.97;5092058;28;19954;-46
2023/06/26 09:44:45;;;;;;;;;;;;;;;31.30;46.38;99194.59;5092417;28;19912;-45
2023/06/26 09:47:11;;;;;;;;;;;;;;;31.38;45.96;99193.63;5092347;28;19919;-45
2023/06/26 09:49:36;;;;;;;;;;;;;;;31.08;45.30;99201.50;5092314;28;19912;-45
2023/06/26 09:52:02;;;;;;;;;;;;;;;29.72;51.21;99203.94;5092217;28;19920;-44
2023/06/26 09:54:30;;;;;;;;;;;;;;;29.13;50.86;99202.47;5092615;28;20007;-42
2023/06/26 09:56:55;;;;;;;;;;;;;;;28.76;53.45;99207.03;5092015;28;19987;-42
2023/06/26 09:59:21;;;;;;;;;;;;;;;28.75;53.16;99206.25;5092330;28;20397;-43
2023/06/26 10:01:46;;;;;;;;;;;;;;;28.87;52.90;99199.19;5092182;28;19912;-44
2023/06/26 10:04:12;;;;;;;;;;;;;;;29.06;54.11;99204.94;5092333;28;20519;-42
2023/06/26 10:06:40;;;;;;;;;;;;;;;29.19;52.01;99198.34;5092230;28;19999;-42
2023/06/26 10:09:06;;;;;;;;;;;;;;;29.53;51.28;99193.56;5092211;28;19933;-42
2023/06/26 10:11:40;;;;;;;;;;;;;;;29.81;51.59;99193.66;5091875;28;20079;-44
2023/06/26 10:14:07;;;;;;;;;;;;;;;29.96;50.12;99186.66;5091900;28;20347;-44
2023/06/26 10:16:34;;;;;;;;;;;;;;;30.39;49.45;99179.69;5091688;28;19990;-44
2023/06/26 10:19:02;;;;;;;;;;;;;;;30.65;49.43;99177.63;5091495;28;20284;-44
2023/06/26 10:21:29;;;;;;;;;;;;;;;30.63;49.84;99174.41;5091469;28;20005;-42
2023/06/26 10:23:56;;;;;;;;;;;;;;;30.87;48.37;99181.72;5091914;28;19942;-44
2023/06/26 10:26:22;;;;;;;;;;;;;;;31.08;46.25;99179.53;5091541;28;19941;-43
2023/06/26 10:28:51;;;;;;;;;;;;;;;31.14;46.98;99178.13;5091803;28;19912;-43
2023/06/26 10:31:18;;;;;;;;;;;;;;;30.97;48.47;99172.97;5091507;28;20391;-43
2023/06/26 10:33:44;;;;;;;;;;;;;;;30.31;51.33;99175.13;5091219;28;19924;-41
2023/06/26 10:36:18;;;;;;;;;;;;;;;30.47;49.11;99174.41;5091731;28;20381;-43
2023/06/26 10:38:50;;;;;;;;;;;;;;;30.82;46.97;99165.50;5091591;28;19958;-41
2023/06/26 10:41:19;;;;;;;;;;;;;;;30.88;47.20;99164.06;5091546;28;19919;-42
2023/06/26 10:43:46;;;;;;;;;;;;;;;31.04;47.25;99162.19;5090885;28;19998;-43
2023/06/26 10:46:14;;;;;;;;;;;;;;;31.25;45.73;99150.13;5091435;28;19912;-42
2023/06/26 10:48:59;;;;;;;;;;;;;;;31.44;46.51;99150.16;5091947;28;19912;-41
2023/06/26 10:51:25;;;;;;;;;;;;;;;31.61;44.94;99143.50;5088993;28;19925;-41
2023/06/26 10:53:57;;;;;;;;;;;;;;;31.80;46.54;99142.72;5086825;28;19916;-44
2023/06/26 10:56:41;;;;;;;;;;;;;;;32.07;43.32;99134.66;5090466;28;20004;-43
2023/06/26 10:59:19;;;;;;;;;;;;;;;32.50;42.84;99138.22;5090439;28;19924;-44
2023/06/26 11:01:46;;;;;;;;;;;;;;;33.02;42.54;99145.06;5089289;28;19916;-42
2023/06/26 11:04:14;;;;;;;;;;;;;;;33.67;39.82;99137.78;5089106;28;20030;-41
2023/06/26 11:06:40;;;;;;;;;;;;;;;34.01;37.99;99138.63;5088385;28;19916;-42
2023/06/26 11:09:05;;;;;;;;;;;;;;;33.85;36.04;99130.56;5090748;28;20312;-45
2023/06/26 11:11:49;;;;;;;;;;;;;;;34.36;35.89;99131.16;5090640;28;19961;-42
2023/06/26 11:14:15;;;;;;;;;;;;;;;34.80;35.64;99127.63;5090039;28;19912;-43
2023/06/26 11:16:42;;;;;;;;;;;;;;;35.44;34.50;99133.66;5090750;28;19919;-42
2023/06/26 11:19:08;;;;;;;;;;;;;;;34.74;36.38;99145.75;5090546;28;19924;-42
2023/06/26 11:21:34;;;;;;;;;;;;;;;34.64;37.47;99136.94;5090509;28;19924;-44
2023/06/26 11:24:02;;;;;;;;;;;;;;;33.53;39.62;99132.84;5090834;28;19912;-43
2023/06/26 11:26:27;;;;;;;;;;;;;;;32.62;41.01;99132.56;5090404;28;19950;-42
2023/06/26 11:28:56;;;;;;;;;;;;;;;31.81;42.52;99132.53;5090477;28;20348;-36
2023/06/26 11:31:30;;;;;;;;;;;;;;;31.59;43.33;99132.06;5087466;28;19923;-42
2023/06/26 11:33:56;;;;;;;;;;;;;;;31.48;43.68;99129.06;5090799;28;20281;-43
2023/06/26 11:36:25;;;;;;;;;;;;;;;31.36;43.38;99135.47;5090837;28;19912;-42
2023/06/26 11:38:55;;;;;;;;;;;;;;;30.94;45.16;99138.78;5088730;28;19924;-43
2023/06/26 11:41:20;;;;;;;;;;;;;;;30.54;45.20;99130.66;5090853;28;19965;-42
2023/06/26 11:43:45;;;;;;;;;;;;;;;30.69;44.98;99131.81;5090850;28;19912;-42
2023/06/26 11:46:11;;;;;;;;;;;;;;;30.63;44.81;99134.03;5090933;28;19958;-42
2023/06/26 11:48:36;;;;;;;;;;;;;;;30.95;44.34;99125.84;5090705;28;19912;-43
2023/06/26 11:51:04;;;;;;;;;;;;;;;30.88;44.55;99131.94;5090403;28;19912;-44
2023/06/26 11:53:29;;;;;;;;;;;;;;;30.24;45.71;99124.75;5090774;28;19920;-43
2023/06/26 11:55:55;;;;;;;;;;;;;;;30.23;44.07;99123.94;5093414;28;19912;-42
2023/06/26 11:58:20;;;;;;;;;;;;;;;30.47;46.27;99127.75;5094467;28;20010;-41
2023/06/26 12:00:47;;;;;;;;;;;;;;;30.25;48.55;99123.59;5094480;28;19938;-41
2023/06/26 12:03:12;;;;;;;;;;;;;;;29.75;50.08;99123.75;5094441;28;20210;-37
2023/06/26 12:05:38;;;;;;;;;;;;;;;29.21;52.58;99124.06;5094338;28;19923;-34
2023/06/26 12:08:06;;;;;;;;;;;;;;;29.73;50.36;99120.56;5094456;28;19912;-34
2023/06/26 12:10:31;;;;;;;;;;;;;;;29.67;49.23;99126.63;5094293;28;19912;-36
2023/06/26 12:12:58;;;;;;;;;;;;;;;30.16;47.98;99131.97;5094262;28;19969;-36
2023/06/26 12:15:24;;;;;;;;;;;;;;;30.22;46.92;99125.09;5094195;28;19936;-37
2023/06/26 12:17:49;;;;;;;;;;;;;;;30.07;48.60;99123.88;5094149;28;19947;-37
2023/06/26 12:20:19;;;;;;;;;;;;;;;30.88;48.29;99128.38;5093859;28;19965;-37
2023/06/26 12:22:45;;;;;;;;;;;;;;;31.73;46.16;99126.06;5074163;28;19913;-44
2023/06/26 12:25:10;;;;;;;;;;;;;;;31.50;42.64;99123.22;5074192;28;19948;-46
2023/06/26 12:27:36;;;;;;;;;;;;;;;31.18;45.36;99135.03;5073725;28;20384;-37
2023/06/26 12:30:03;;;;;;;;;;;;;;;30.97;43.68;99151.00;5073872;28;19987;-37
2023/06/26 12:32:28;;;;;;;;;;;;;;;30.79;43.06;99153.28;5073930;28;19925;-36
2023/06/26 12:34:55;;;;;;;;;;;;;;;30.76;42.73;99154.78;5073781;28;20019;-37
2023/06/26 12:37:21;;;;;;;;;;;;;;;30.78;43.19;99157.16;5073260;28;19962;-37
2023/06/26 12:39:50;;;;;;;;;;;;;;;30.57;44.22;99165.66;5073346;28;20396;-36
2023/06/26 12:42:16;;;;;;;;;;;;;;;30.62;44.11;99162.66;5090377;28;20291;-36